sensor_id;sensor_type;location;lat;lon;timestamp;temperature;humidity
27619;DHT22;15039;50.830;4.730;2022-10-16T00:01:16;14.70;99.90
27619;DHT22;15039;50.830;4.730;2022-10-16T00:03:42;14.60;99.90
27619;DHT22;15039;50.830;4.730;2022-10-16T00:06:09;14.60;99.90
27619;DHT22;15039;50.830;4.730;2022-10-16T00:08:34;14.70;99.90
27619;DHT22;15039;50.830;4.730;2022-10-16T00:13:28;14.60;99.90
27619;DHT22;15039;50.830;4.730;2022-10-16T00:15:55;14.60;99.90
27619;DHT22;15039;50.830;4.730;2022-10-16T00:18:21;14.60;99.90
27619;DHT22;15039;50.830;4.730;2022-10-16T00:20:46;14.50;99.90
27619;DHT22;15039;50.830;4.730;2022-10-16T00:23:12;14.50;99.90
27619;DHT22;15039;50.830;4.730;2022-10-16T00:25:37;14.40;99.90
27619;DHT22;15039;50.830;4.730;2022-10-16T00:28:03;14.40;99.90
27619;DHT22;15039;50.830;4.730;2022-10-16T00:30:28;14.40;99.90
27619;DHT22;15039;50.830;4.730;2022-10-16T00:32:54;14.40;99.90
27619;DHT22;15039;50.830;4.730;2022-10-16T00:35:20;14.40;99.90
27619;DHT22;15039;50.830;4.730;2022-10-16T00:37:45;14.40;99.90
27619;DHT22;15039;50.830;4.730;2022-10-16T00:40:11;14.30;99.90
27619;DHT22;15039;50.830;4.730;2022-10-16T00:42:36;14.30;99.90
27619;DHT22;15039;50.830;4.730;2022-10-16T00:45:02;14.30;99.90
27619;DHT22;15039;50.830;4.730;2022-10-16T00:47:34;14.20;99.90
27619;DHT22;15039;50.830;4.730;2022-10-16T00:52:46;14.20;99.90
27619;DHT22;15039;50.830;4.730;2022-10-16T00:55:12;14.20;99.90
27619;DHT22;15039;50.830;4.730;2022-10-16T00:57:38;14.20;99.90
27619;DHT22;15039;50.830;4.730;2022-10-16T01:00:05;14.10;99.90
27619;DHT22;15039;50.830;4.730;2022-10-16T01:02:31;14.10;99.90
27619;DHT22;15039;50.830;4.730;2022-10-16T01:04:56;14.10;99.90
27619;DHT22;15039;50.830;4.730;2022-10-16T01:14:58;14.10;99.90
27619;DHT22;15039;50.830;4.730;2022-10-16T01:17:39;14.10;99.90
27619;DHT22;15039;50.830;4.730;2022-10-16T01:20:11;13.90;99.90
27619;DHT22;15039;50.830;4.730;2022-10-16T01:22:43;13.90;99.90
27619;DHT22;15039;50.830;4.730;2022-10-16T01:25:17;14.00;99.90
27619;DHT22;15039;50.830;4.730;2022-10-16T01:27:44;14.00;99.90
27619;DHT22;15039;50.830;4.730;2022-10-16T01:30:17;14.10;99.90
27619;DHT22;15039;50.830;4.730;2022-10-16T01:32:50;14.00;99.90
27619;DHT22;15039;50.830;4.730;2022-10-16T01:35:18;14.10;99.90
27619;DHT22;15039;50.830;4.730;2022-10-16T01:37:56;14.00;99.90
27619;DHT22;15039;50.830;4.730;2022-10-16T01:40:24;14.10;99.90
27619;DHT22;15039;50.830;4.730;2022-10-16T01:42:53;14.00;99.90
27619;DHT22;15039;50.830;4.730;2022-10-16T01:45:20;14.00;99.90
27619;DHT22;15039;50.830;4.730;2022-10-16T01:47:46;13.90;99.90
27619;DHT22;15039;50.830;4.730;2022-10-16T01:50:13;14.00;99.90
27619;DHT22;15039;50.830;4.730;2022-10-16T01:52:41;14.00;99.90
27619;DHT22;15039;50.830;4.730;2022-10-16T01:55:09;14.00;99.90
27619;DHT22;15039;50.830;4.730;2022-10-16T01:57:36;13.90;99.90
27619;DHT22;15039;50.830;4.730;2022-10-16T02:00:05;13.80;99.90
27619;DHT22;15039;50.830;4.730;2022-10-16T02:02:32;13.80;99.90
27619;DHT22;15039;50.830;4.730;2022-10-16T02:05:01;13.90;99.90
27619;DHT22;15039;50.830;4.730;2022-10-16T02:07:28;13.90;99.90
27619;DHT22;15039;50.830;4.730;2022-10-16T02:09:54;14.00;99.90
27619;DHT22;15039;50.830;4.730;2022-10-16T02:12:26;14.00;99.90
27619;DHT22;15039;50.830;4.730;2022-10-16T02:14:53;14.00;99.90
27619;DHT22;15039;50.830;4.730;2022-10-16T02:17:19;14.00;99.90
27619;DHT22;15039;50.830;4.730;2022-10-16T02:19:45;14.00;99.90
27619;DHT22;15039;50.830;4.730;2022-10-16T02:22:15;13.90;99.90
27619;DHT22;15039;50.830;4.730;2022-10-16T02:27:13;13.90;99.90
27619;DHT22;15039;50.830;4.730;2022-10-16T02:29:45;14.00;99.90
27619;DHT22;15039;50.830;4.730;2022-10-16T02:32:13;14.00;99.90
27619;DHT22;15039;50.830;4.730;2022-10-16T02:34:41;14.00;99.90
27619;DHT22;15039;50.830;4.730;2022-10-16T02:37:06;14.00;99.90
27619;DHT22;15039;50.830;4.730;2022-10-16T02:39:32;14.10;99.90
27619;DHT22;15039;50.830;4.730;2022-10-16T02:41:58;14.00;99.90
27619;DHT22;15039;50.830;4.730;2022-10-16T02:44:24;14.00;99.90
27619;DHT22;15039;50.830;4.730;2022-10-16T02:46:50;14.10;99.90
27619;DHT22;15039;50.830;4.730;2022-10-16T02:49:15;14.00;99.90
27619;DHT22;15039;50.830;4.730;2022-10-16T02:51:41;14.00;99.90
27619;DHT22;15039;50.830;4.730;2022-10-16T02:54:06;13.90;99.90
27619;DHT22;15039;50.830;4.730;2022-10-16T02:56:32;13.90;99.90
27619;DHT22;15039;50.830;4.730;2022-10-16T02:58:57;14.00;99.90
27619;DHT22;15039;50.830;4.730;2022-10-16T03:01:23;13.90;99.90
27619;DHT22;15039;50.830;4.730;2022-10-16T03:03:49;13.80;99.90
27619;DHT22;15039;50.830;4.730;2022-10-16T03:06:14;13.80;99.90
27619;DHT22;15039;50.830;4.730;2022-10-16T03:08:40;13.80;99.90
27619;DHT22;15039;50.830;4.730;2022-10-16T03:11:05;13.90;99.90
27619;DHT22;15039;50.830;4.730;2022-10-16T03:13:31;14.00;99.90
27619;DHT22;15039;50.830;4.730;2022-10-16T03:15:56;14.00;99.90
27619;DHT22;15039;50.830;4.730;2022-10-16T03:18:22;14.00;99.90
27619;DHT22;15039;50.830;4.730;2022-10-16T03:20:47;13.90;99.90
27619;DHT22;15039;50.830;4.730;2022-10-16T03:23:13;14.00;99.90
27619;DHT22;15039;50.830;4.730;2022-10-16T03:25:39;13.90;99.90
27619;DHT22;15039;50.830;4.730;2022-10-16T03:28:04;13.90;99.90
27619;DHT22;15039;50.830;4.730;2022-10-16T03:30:30;13.90;99.90
27619;DHT22;15039;50.830;4.730;2022-10-16T03:32:55;13.90;99.90
27619;DHT22;15039;50.830;4.730;2022-10-16T03:35:21;13.90;99.90
27619;DHT22;15039;50.830;4.730;2022-10-16T03:37:47;14.00;99.90
27619;DHT22;15039;50.830;4.730;2022-10-16T03:40:12;13.90;99.90
27619;DHT22;15039;50.830;4.730;2022-10-16T03:42:38;13.90;99.90
27619;DHT22;15039;50.830;4.730;2022-10-16T03:45:04;13.90;99.90
27619;DHT22;15039;50.830;4.730;2022-10-16T03:47:29;13.80;99.90
27619;DHT22;15039;50.830;4.730;2022-10-16T03:49:55;13.80;99.90
27619;DHT22;15039;50.830;4.730;2022-10-16T03:52:21;13.80;99.90
27619;DHT22;15039;50.830;4.730;2022-10-16T03:54:47;13.80;99.90
27619;DHT22;15039;50.830;4.730;2022-10-16T03:57:12;13.90;99.90
27619;DHT22;15039;50.830;4.730;2022-10-16T03:59:38;13.90;99.90
27619;DHT22;15039;50.830;4.730;2022-10-16T04:02:03;13.90;99.90
27619;DHT22;15039;50.830;4.730;2022-10-16T04:04:29;13.80;99.90
27619;DHT22;15039;50.830;4.730;2022-10-16T04:06:54;13.80;99.90
27619;DHT22;15039;50.830;4.730;2022-10-16T04:09:20;13.90;99.90
27619;DHT22;15039;50.830;4.730;2022-10-16T04:11:45;13.80;99.90
27619;DHT22;15039;50.830;4.730;2022-10-16T04:14:11;13.90;99.90
27619;DHT22;15039;50.830;4.730;2022-10-16T04:16:36;13.90;99.90
27619;DHT22;15039;50.830;4.730;2022-10-16T04:19:02;13.90;99.90
27619;DHT22;15039;50.830;4.730;2022-10-16T04:21:27;13.90;99.90
27619;DHT22;15039;50.830;4.730;2022-10-16T04:23:53;13.80;99.90
27619;DHT22;15039;50.830;4.730;2022-10-16T04:26:18;13.80;99.90
27619;DHT22;15039;50.830;4.730;2022-10-16T04:28:44;13.80;99.90
27619;DHT22;15039;50.830;4.730;2022-10-16T04:31:09;13.80;99.90
27619;DHT22;15039;50.830;4.730;2022-10-16T04:33:35;13.80;99.90
27619;DHT22;15039;50.830;4.730;2022-10-16T04:36:01;13.80;99.90
27619;DHT22;15039;50.830;4.730;2022-10-16T04:38:27;13.80;99.90
27619;DHT22;15039;50.830;4.730;2022-10-16T04:40:52;13.90;99.90
27619;DHT22;15039;50.830;4.730;2022-10-16T04:43:18;13.90;99.90
27619;DHT22;15039;50.830;4.730;2022-10-16T04:45:43;14.00;99.90
27619;DHT22;15039;50.830;4.730;2022-10-16T04:48:09;14.00;99.90
27619;DHT22;15039;50.830;4.730;2022-10-16T04:50:35;13.90;99.90
27619;DHT22;15039;50.830;4.730;2022-10-16T04:53:00;13.90;99.90
27619;DHT22;15039;50.830;4.730;2022-10-16T04:55:26;13.90;99.90
27619;DHT22;15039;50.830;4.730;2022-10-16T04:57:51;13.80;99.90
27619;DHT22;15039;50.830;4.730;2022-10-16T05:00:17;13.70;99.90
27619;DHT22;15039;50.830;4.730;2022-10-16T05:02:42;13.70;99.90
27619;DHT22;15039;50.830;4.730;2022-10-16T05:05:08;13.60;99.90
27619;DHT22;15039;50.830;4.730;2022-10-16T05:07:33;13.60;99.90
27619;DHT22;15039;50.830;4.730;2022-10-16T05:09:59;13.60;99.90
27619;DHT22;15039;50.830;4.730;2022-10-16T05:12:24;13.60;99.90
27619;DHT22;15039;50.830;4.730;2022-10-16T05:14:50;13.70;99.90
27619;DHT22;15039;50.830;4.730;2022-10-16T05:17:15;13.60;99.90
27619;DHT22;15039;50.830;4.730;2022-10-16T05:19:41;13.60;99.90
27619;DHT22;15039;50.830;4.730;2022-10-16T05:22:06;13.70;99.90
27619;DHT22;15039;50.830;4.730;2022-10-16T05:24:32;13.70;99.90
27619;DHT22;15039;50.830;4.730;2022-10-16T05:26:57;13.70;99.90
27619;DHT22;15039;50.830;4.730;2022-10-16T05:29:23;13.60;99.90
27619;DHT22;15039;50.830;4.730;2022-10-16T05:31:52;13.60;99.90
27619;DHT22;15039;50.830;4.730;2022-10-16T05:34:18;13.60;99.90
27619;DHT22;15039;50.830;4.730;2022-10-16T05:36:44;13.50;99.90
27619;DHT22;15039;50.830;4.730;2022-10-16T05:39:10;13.60;99.90
27619;DHT22;15039;50.830;4.730;2022-10-16T05:41:36;13.50;99.90
27619;DHT22;15039;50.830;4.730;2022-10-16T05:44:06;13.50;99.90
27619;DHT22;15039;50.830;4.730;2022-10-16T05:46:32;13.50;99.90
27619;DHT22;15039;50.830;4.730;2022-10-16T05:48:57;13.50;99.90
27619;DHT22;15039;50.830;4.730;2022-10-16T05:51:23;13.50;99.90
27619;DHT22;15039;50.830;4.730;2022-10-16T05:53:49;13.50;99.90
27619;DHT22;15039;50.830;4.730;2022-10-16T05:56:14;13.40;99.90
27619;DHT22;15039;50.830;4.730;2022-10-16T05:58:40;13.50;99.90
27619;DHT22;15039;50.830;4.730;2022-10-16T06:01:07;13.50;99.90
27619;DHT22;15039;50.830;4.730;2022-10-16T06:03:33;13.50;99.90
27619;DHT22;15039;50.830;4.730;2022-10-16T06:05:58;13.40;99.90
27619;DHT22;15039;50.830;4.730;2022-10-16T06:08:24;13.40;99.90
27619;DHT22;15039;50.830;4.730;2022-10-16T06:10:59;13.40;99.90
27619;DHT22;15039;50.830;4.730;2022-10-16T06:13:25;13.50;99.90
27619;DHT22;15039;50.830;4.730;2022-10-16T06:15:51;13.40;99.90
27619;DHT22;15039;50.830;4.730;2022-10-16T06:18:16;13.50;99.90
27619;DHT22;15039;50.830;4.730;2022-10-16T06:20:42;13.50;99.90
27619;DHT22;15039;50.830;4.730;2022-10-16T06:23:07;13.50;99.90
27619;DHT22;15039;50.830;4.730;2022-10-16T06:25:33;13.50;99.90
27619;DHT22;15039;50.830;4.730;2022-10-16T06:27:58;13.50;99.90
27619;DHT22;15039;50.830;4.730;2022-10-16T06:30:24;13.50;99.90
27619;DHT22;15039;50.830;4.730;2022-10-16T06:32:49;13.50;99.90
27619;DHT22;15039;50.830;4.730;2022-10-16T06:35:15;13.50;99.90
27619;DHT22;15039;50.830;4.730;2022-10-16T06:37:40;13.50;99.90
27619;DHT22;15039;50.830;4.730;2022-10-16T06:40:06;13.50;99.90
27619;DHT22;15039;50.830;4.730;2022-10-16T06:42:32;13.40;99.90
27619;DHT22;15039;50.830;4.730;2022-10-16T06:44:57;13.50;99.90
27619;DHT22;15039;50.830;4.730;2022-10-16T06:47:23;13.50;99.90
27619;DHT22;15039;50.830;4.730;2022-10-16T06:49:48;13.50;99.90
27619;DHT22;15039;50.830;4.730;2022-10-16T06:52:14;13.50;99.90
27619;DHT22;15039;50.830;4.730;2022-10-16T06:54:39;13.50;99.90
27619;DHT22;15039;50.830;4.730;2022-10-16T06:57:05;13.50;99.90
27619;DHT22;15039;50.830;4.730;2022-10-16T06:59:30;13.60;99.90
27619;DHT22;15039;50.830;4.730;2022-10-16T07:01:56;13.60;99.90
27619;DHT22;15039;50.830;4.730;2022-10-16T07:04:22;13.60;99.90
27619;DHT22;15039;50.830;4.730;2022-10-16T07:06:47;13.60;99.90
27619;DHT22;15039;50.830;4.730;2022-10-16T07:09:13;13.60;99.90
27619;DHT22;15039;50.830;4.730;2022-10-16T07:11:38;13.80;99.90
27619;DHT22;15039;50.830;4.730;2022-10-16T07:14:04;13.90;99.90
27619;DHT22;15039;50.830;4.730;2022-10-16T07:16:31;13.90;99.90
27619;DHT22;15039;50.830;4.730;2022-10-16T07:18:57;13.90;99.90
27619;DHT22;15039;50.830;4.730;2022-10-16T07:21:24;14.00;99.90
27619;DHT22;15039;50.830;4.730;2022-10-16T07:23:51;14.10;99.90
27619;DHT22;15039;50.830;4.730;2022-10-16T07:26:17;14.10;99.90
27619;DHT22;15039;50.830;4.730;2022-10-16T07:28:43;14.20;99.90
27619;DHT22;15039;50.830;4.730;2022-10-16T07:31:10;14.20;99.90
27619;DHT22;15039;50.830;4.730;2022-10-16T07:33:36;14.20;99.90
27619;DHT22;15039;50.830;4.730;2022-10-16T07:36:02;14.20;99.90
27619;DHT22;15039;50.830;4.730;2022-10-16T07:38:27;14.30;99.90
27619;DHT22;15039;50.830;4.730;2022-10-16T07:40:55;14.40;99.90
27619;DHT22;15039;50.830;4.730;2022-10-16T07:43:21;14.50;99.90
27619;DHT22;15039;50.830;4.730;2022-10-16T07:45:47;14.50;99.90
27619;DHT22;15039;50.830;4.730;2022-10-16T07:48:13;14.60;99.90
27619;DHT22;15039;50.830;4.730;2022-10-16T07:50:39;14.60;99.90
27619;DHT22;15039;50.830;4.730;2022-10-16T07:53:04;14.70;99.90
27619;DHT22;15039;50.830;4.730;2022-10-16T07:55:30;14.70;99.90
27619;DHT22;15039;50.830;4.730;2022-10-16T07:57:55;14.70;99.90
27619;DHT22;15039;50.830;4.730;2022-10-16T08:00:21;14.70;99.90
27619;DHT22;15039;50.830;4.730;2022-10-16T08:02:46;14.70;99.90
27619;DHT22;15039;50.830;4.730;2022-10-16T08:05:12;14.70;99.90
27619;DHT22;15039;50.830;4.730;2022-10-16T08:07:37;14.80;99.90
27619;DHT22;15039;50.830;4.730;2022-10-16T08:10:03;15.00;99.90
27619;DHT22;15039;50.830;4.730;2022-10-16T08:12:29;15.00;99.90
27619;DHT22;15039;50.830;4.730;2022-10-16T08:14:54;15.00;99.90
27619;DHT22;15039;50.830;4.730;2022-10-16T08:17:20;15.00;99.90
27619;DHT22;15039;50.830;4.730;2022-10-16T08:19:46;15.10;99.90
27619;DHT22;15039;50.830;4.730;2022-10-16T08:22:12;15.20;99.90
27619;DHT22;15039;50.830;4.730;2022-10-16T08:24:38;15.20;99.90
27619;DHT22;15039;50.830;4.730;2022-10-16T08:27:03;15.20;99.90
27619;DHT22;15039;50.830;4.730;2022-10-16T08:29:29;15.30;99.90
27619;DHT22;15039;50.830;4.730;2022-10-16T08:31:54;15.40;99.90
27619;DHT22;15039;50.830;4.730;2022-10-16T08:34:20;15.50;99.90
27619;DHT22;15039;50.830;4.730;2022-10-16T08:36:45;15.60;99.90
27619;DHT22;15039;50.830;4.730;2022-10-16T08:39:11;15.60;99.90
27619;DHT22;15039;50.830;4.730;2022-10-16T08:41:47;15.70;99.90
27619;DHT22;15039;50.830;4.730;2022-10-16T08:49:58;15.90;99.90
27619;DHT22;15039;50.830;4.730;2022-10-16T08:52:25;15.80;99.90
27619;DHT22;15039;50.830;4.730;2022-10-16T08:54:53;15.80;99.90
27619;DHT22;15039;50.830;4.730;2022-10-16T08:57:20;15.80;99.90
27619;DHT22;15039;50.830;4.730;2022-10-16T08:59:46;15.90;99.90
27619;DHT22;15039;50.830;4.730;2022-10-16T09:07:32;16.20;99.90
27619;DHT22;15039;50.830;4.730;2022-10-16T09:10:08;16.30;99.90
27619;DHT22;15039;50.830;4.730;2022-10-16T09:12:38;16.30;99.90
27619;DHT22;15039;50.830;4.730;2022-10-16T09:22:51;16.50;99.90
27619;DHT22;15039;50.830;4.730;2022-10-16T09:25:20;16.50;99.90
27619;DHT22;15039;50.830;4.730;2022-10-16T09:27:47;16.60;99.90
27619;DHT22;15039;50.830;4.730;2022-10-16T09:30:14;16.60;99.90
27619;DHT22;15039;50.830;4.730;2022-10-16T09:32:40;16.70;99.90
27619;DHT22;15039;50.830;4.730;2022-10-16T09:35:11;16.70;99.90
27619;DHT22;15039;50.830;4.730;2022-10-16T09:37:38;16.80;99.90
27619;DHT22;15039;50.830;4.730;2022-10-16T09:40:04;16.80;99.90
27619;DHT22;15039;50.830;4.730;2022-10-16T09:42:31;17.00;99.90
27619;DHT22;15039;50.830;4.730;2022-10-16T09:44:57;17.00;99.90
27619;DHT22;15039;50.830;4.730;2022-10-16T09:47:23;17.10;99.90
27619;DHT22;15039;50.830;4.730;2022-10-16T09:49:53;17.10;99.90
27619;DHT22;15039;50.830;4.730;2022-10-16T09:52:19;17.20;99.90
27619;DHT22;15039;50.830;4.730;2022-10-16T09:54:52;17.10;99.90
27619;DHT22;15039;50.830;4.730;2022-10-16T09:57:18;17.20;99.90
27619;DHT22;15039;50.830;4.730;2022-10-16T09:59:53;17.30;99.90
27619;DHT22;15039;50.830;4.730;2022-10-16T10:02:20;17.30;99.90
27619;DHT22;15039;50.830;4.730;2022-10-16T10:04:51;17.40;99.90
27619;DHT22;15039;50.830;4.730;2022-10-16T10:07:36;17.40;99.90
27619;DHT22;15039;50.830;4.730;2022-10-16T10:10:04;17.50;99.90
27619;DHT22;15039;50.830;4.730;2022-10-16T10:12:30;17.50;99.90
27619;DHT22;15039;50.830;4.730;2022-10-16T10:15:11;17.40;99.90
27619;DHT22;15039;50.830;4.730;2022-10-16T10:17:47;17.50;99.90
27619;DHT22;15039;50.830;4.730;2022-10-16T10:20:27;17.50;99.90
27619;DHT22;15039;50.830;4.730;2022-10-16T10:22:53;17.50;99.90
27619;DHT22;15039;50.830;4.730;2022-10-16T10:30:38;17.90;99.90
27619;DHT22;15039;50.830;4.730;2022-10-16T10:33:25;18.00;99.90
27619;DHT22;15039;50.830;4.730;2022-10-16T10:38:34;18.10;99.90
27619;DHT22;15039;50.830;4.730;2022-10-16T10:41:09;18.20;99.90
27619;DHT22;15039;50.830;4.730;2022-10-16T10:49:06;18.30;99.90
27619;DHT22;15039;50.830;4.730;2022-10-16T10:54:20;18.40;99.90
27619;DHT22;15039;50.830;4.730;2022-10-16T10:56:51;18.30;99.90
27619;DHT22;15039;50.830;4.730;2022-10-16T11:01:59;18.50;99.90
27619;DHT22;15039;50.830;4.730;2022-10-16T11:07:11;18.50;99.90
27619;DHT22;15039;50.830;4.730;2022-10-16T11:09:41;18.60;99.90
27619;DHT22;15039;50.830;4.730;2022-10-16T11:12:25;18.50;99.90
27619;DHT22;15039;50.830;4.730;2022-10-16T11:27:03;18.80;99.90
27619;DHT22;15039;50.830;4.730;2022-10-16T11:29:31;18.80;99.90
27619;DHT22;15039;50.830;4.730;2022-10-16T11:31:58;18.80;99.90
27619;DHT22;15039;50.830;4.730;2022-10-16T11:34:27;18.90;99.90
27619;DHT22;15039;50.830;4.730;2022-10-16T11:39:20;18.80;99.90
27619;DHT22;15039;50.830;4.730;2022-10-16T11:41:48;18.70;99.90
27619;DHT22;15039;50.830;4.730;2022-10-16T11:47:19;19.00;99.90
27619;DHT22;15039;50.830;4.730;2022-10-16T11:49:40;19.20;99.90
27619;DHT22;15039;50.830;4.730;2022-10-16T11:52:12;19.20;99.90
27619;DHT22;15039;50.830;4.730;2022-10-16T11:54:47;19.20;99.90
27619;DHT22;15039;50.830;4.730;2022-10-16T11:57:20;19.20;99.90
27619;DHT22;15039;50.830;4.730;2022-10-16T12:07:48;19.50;99.90
27619;DHT22;15039;50.830;4.730;2022-10-16T12:10:24;19.60;99.90
27619;DHT22;15039;50.830;4.730;2022-10-16T12:12:51;19.70;99.90
27619;DHT22;15039;50.830;4.730;2022-10-16T12:17:45;20.10;99.90
27619;DHT22;15039;50.830;4.730;2022-10-16T12:22:36;20.40;99.90
27619;DHT22;15039;50.830;4.730;2022-10-16T12:25:02;20.60;99.90
27619;DHT22;15039;50.830;4.730;2022-10-16T12:27:31;20.60;99.90
27619;DHT22;15039;50.830;4.730;2022-10-16T12:30:00;20.50;99.90
27619;DHT22;15039;50.830;4.730;2022-10-16T12:34:55;20.50;99.90
27619;DHT22;15039;50.830;4.730;2022-10-16T12:37:21;20.60;99.90
27619;DHT22;15039;50.830;4.730;2022-10-16T12:39:48;20.70;99.90
27619;DHT22;15039;50.830;4.730;2022-10-16T12:42:21;20.80;99.90
27619;DHT22;15039;50.830;4.730;2022-10-16T12:44:48;21.00;99.90
27619;DHT22;15039;50.830;4.730;2022-10-16T12:49:57;21.00;99.90
27619;DHT22;15039;50.830;4.730;2022-10-16T12:52:25;21.00;99.90
27619;DHT22;15039;50.830;4.730;2022-10-16T12:54:50;20.90;99.90
27619;DHT22;15039;50.830;4.730;2022-10-16T13:23:39;21.20;99.90
27619;DHT22;15039;50.830;4.730;2022-10-16T13:28:51;21.30;99.90
27619;DHT22;15039;50.830;4.730;2022-10-16T13:31:18;21.40;99.90
27619;DHT22;15039;50.830;4.730;2022-10-16T13:33:49;21.40;99.90
27619;DHT22;15039;50.830;4.730;2022-10-16T13:36:29;21.40;99.90
27619;DHT22;15039;50.830;4.730;2022-10-16T13:39:12;21.30;99.90
27619;DHT22;15039;50.830;4.730;2022-10-16T13:41:38;21.20;99.90
27619;DHT22;15039;50.830;4.730;2022-10-16T13:44:04;21.10;99.90
27619;DHT22;15039;50.830;4.730;2022-10-16T13:46:30;20.90;99.90
27619;DHT22;15039;50.830;4.730;2022-10-16T13:49:00;21.00;99.90
27619;DHT22;15039;50.830;4.730;2022-10-16T13:51:27;21.20;99.90
27619;DHT22;15039;50.830;4.730;2022-10-16T13:53:52;21.30;99.90
27619;DHT22;15039;50.830;4.730;2022-10-16T13:56:20;21.40;99.90
27619;DHT22;15039;50.830;4.730;2022-10-16T13:58:57;21.40;99.90
27619;DHT22;15039;50.830;4.730;2022-10-16T14:01:24;21.40;99.90
27619;DHT22;15039;50.830;4.730;2022-10-16T14:03:50;21.20;99.90
27619;DHT22;15039;50.830;4.730;2022-10-16T14:06:17;21.10;99.90
27619;DHT22;15039;50.830;4.730;2022-10-16T14:08:44;21.10;99.90
27619;DHT22;15039;50.830;4.730;2022-10-16T14:11:11;21.10;99.90
27619;DHT22;15039;50.830;4.730;2022-10-16T14:13:38;21.30;99.90
27619;DHT22;15039;50.830;4.730;2022-10-16T14:16:08;21.30;99.90
27619;DHT22;15039;50.830;4.730;2022-10-16T14:18:34;21.40;99.90
27619;DHT22;15039;50.830;4.730;2022-10-16T14:21:05;21.40;99.90
27619;DHT22;15039;50.830;4.730;2022-10-16T14:23:36;21.20;99.90
27619;DHT22;15039;50.830;4.730;2022-10-16T14:26:07;21.10;99.90
27619;DHT22;15039;50.830;4.730;2022-10-16T14:28:40;21.10;99.90
27619;DHT22;15039;50.830;4.730;2022-10-16T14:33:50;21.10;99.90
27619;DHT22;15039;50.830;4.730;2022-10-16T14:36:16;21.00;99.90
27619;DHT22;15039;50.830;4.730;2022-10-16T14:39:03;21.10;99.90
27619;DHT22;15039;50.830;4.730;2022-10-16T14:41:31;21.00;99.90
27619;DHT22;15039;50.830;4.730;2022-10-16T14:44:06;21.00;99.90
27619;DHT22;15039;50.830;4.730;2022-10-16T14:46:33;21.10;99.90
27619;DHT22;15039;50.830;4.730;2022-10-16T14:49:00;21.10;99.90
27619;DHT22;15039;50.830;4.730;2022-10-16T14:51:27;21.20;99.90
27619;DHT22;15039;50.830;4.730;2022-10-16T14:53:52;21.10;99.90
27619;DHT22;15039;50.830;4.730;2022-10-16T14:56:19;21.10;99.90
27619;DHT22;15039;50.830;4.730;2022-10-16T14:58:45;20.90;99.90
27619;DHT22;15039;50.830;4.730;2022-10-16T15:01:11;20.90;99.90
27619;DHT22;15039;50.830;4.730;2022-10-16T15:03:37;20.80;99.90
27619;DHT22;15039;50.830;4.730;2022-10-16T15:06:03;20.80;99.90
27619;DHT22;15039;50.830;4.730;2022-10-16T15:08:28;20.80;99.90
27619;DHT22;15039;50.830;4.730;2022-10-16T15:10:54;20.70;99.90
27619;DHT22;15039;50.830;4.730;2022-10-16T15:13:19;20.80;99.90
27619;DHT22;15039;50.830;4.730;2022-10-16T15:15:46;20.70;99.90
27619;DHT22;15039;50.830;4.730;2022-10-16T15:18:11;20.50;99.90
27619;DHT22;15039;50.830;4.730;2022-10-16T15:20:39;20.50;99.90
27619;DHT22;15039;50.830;4.730;2022-10-16T15:23:10;20.60;99.90
27619;DHT22;15039;50.830;4.730;2022-10-16T15:25:42;20.60;99.90
27619;DHT22;15039;50.830;4.730;2022-10-16T15:28:09;20.50;99.90
27619;DHT22;15039;50.830;4.730;2022-10-16T15:30:34;20.50;99.90
27619;DHT22;15039;50.830;4.730;2022-10-16T15:33:00;20.50;99.90
27619;DHT22;15039;50.830;4.730;2022-10-16T15:35:26;20.30;99.90
27619;DHT22;15039;50.830;4.730;2022-10-16T15:37:52;20.10;99.90
27619;DHT22;15039;50.830;4.730;2022-10-16T15:40:17;20.10;99.90
27619;DHT22;15039;50.830;4.730;2022-10-16T15:42:43;20.10;99.90
27619;DHT22;15039;50.830;4.730;2022-10-16T15:45:09;20.10;99.90
27619;DHT22;15039;50.830;4.730;2022-10-16T15:47:35;19.90;99.90
27619;DHT22;15039;50.830;4.730;2022-10-16T15:50:00;19.90;99.90
27619;DHT22;15039;50.830;4.730;2022-10-16T15:52:26;19.80;99.90
27619;DHT22;15039;50.830;4.730;2022-10-16T15:54:54;19.80;99.90
27619;DHT22;15039;50.830;4.730;2022-10-16T15:57:19;19.70;99.90
27619;DHT22;15039;50.830;4.730;2022-10-16T15:59:45;19.50;99.90
27619;DHT22;15039;50.830;4.730;2022-10-16T16:02:10;19.50;99.90
27619;DHT22;15039;50.830;4.730;2022-10-16T16:04:36;19.40;99.90
27619;DHT22;15039;50.830;4.730;2022-10-16T16:07:01;19.30;99.90
27619;DHT22;15039;50.830;4.730;2022-10-16T16:09:29;19.30;99.90
27619;DHT22;15039;50.830;4.730;2022-10-16T16:11:55;19.30;99.90
27619;DHT22;15039;50.830;4.730;2022-10-16T16:14:20;19.20;99.90
27619;DHT22;15039;50.830;4.730;2022-10-16T16:16:46;19.10;99.90
27619;DHT22;15039;50.830;4.730;2022-10-16T16:19:12;19.00;99.90
27619;DHT22;15039;50.830;4.730;2022-10-16T16:21:37;18.90;99.90
27619;DHT22;15039;50.830;4.730;2022-10-16T16:24:03;19.00;99.90
27619;DHT22;15039;50.830;4.730;2022-10-16T16:26:33;19.10;99.90
27619;DHT22;15039;50.830;4.730;2022-10-16T16:29:02;18.90;99.90
27619;DHT22;15039;50.830;4.730;2022-10-16T16:31:28;18.80;99.90
27619;DHT22;15039;50.830;4.730;2022-10-16T16:33:54;18.80;99.90
27619;DHT22;15039;50.830;4.730;2022-10-16T16:36:22;18.80;99.90
27619;DHT22;15039;50.830;4.730;2022-10-16T16:38:48;18.60;99.90
27619;DHT22;15039;50.830;4.730;2022-10-16T16:41:14;18.50;99.90
27619;DHT22;15039;50.830;4.730;2022-10-16T16:43:40;18.50;99.90
27619;DHT22;15039;50.830;4.730;2022-10-16T16:46:06;18.60;99.90
27619;DHT22;15039;50.830;4.730;2022-10-16T16:48:31;18.60;99.90
27619;DHT22;15039;50.830;4.730;2022-10-16T16:51:02;18.60;99.90
27619;DHT22;15039;50.830;4.730;2022-10-16T16:53:27;18.90;99.90
27619;DHT22;15039;50.830;4.730;2022-10-16T16:55:53;18.70;99.90
27619;DHT22;15039;50.830;4.730;2022-10-16T16:58:18;18.80;99.90
27619;DHT22;15039;50.830;4.730;2022-10-16T17:00:47;18.50;99.90
27619;DHT22;15039;50.830;4.730;2022-10-16T17:03:12;18.30;99.90
27619;DHT22;15039;50.830;4.730;2022-10-16T17:05:38;18.20;99.90
27619;DHT22;15039;50.830;4.730;2022-10-16T17:08:06;18.10;99.90
27619;DHT22;15039;50.830;4.730;2022-10-16T17:10:31;18.00;99.90
27619;DHT22;15039;50.830;4.730;2022-10-16T17:12:57;18.10;99.90
27619;DHT22;15039;50.830;4.730;2022-10-16T17:15:22;18.30;99.90
27619;DHT22;15039;50.830;4.730;2022-10-16T17:17:48;18.50;99.90
27619;DHT22;15039;50.830;4.730;2022-10-16T17:20:14;18.30;99.90
27619;DHT22;15039;50.830;4.730;2022-10-16T17:22:39;18.00;99.90
27619;DHT22;15039;50.830;4.730;2022-10-16T17:25:05;17.80;99.90
27619;DHT22;15039;50.830;4.730;2022-10-16T17:27:32;17.70;99.90
27619;DHT22;15039;50.830;4.730;2022-10-16T17:29:58;17.70;99.90
27619;DHT22;15039;50.830;4.730;2022-10-16T17:32:24;17.70;99.90